Time;durP1;ratioP1;P1;durP2;ratioP2;P2;SDS_P1;SDS_P2;PMS_P1;PMS_P2;Temp;Humidity;BMP_temperature;BMP_pressure;BME280_temperature;BME280_humidity;BME280_pressure;Samples;Min_cycle;Max_cycle;Signal;HPM_P1;HPM_P2
2023/01/26 00:01:46;;;;;;;29.47;14.23;;;;;;;0.85;nan;102421.75;6205976;28;20236;-67
2023/01/26 00:05:07;;;;;;;26.50;15.10;;;;;;;0.83;nan;102424.44;6204968;28;20294;-68
2023/01/26 00:08:28;;;;;;;25.13;15.77;;;;;;;0.91;nan;102411.88;6210367;28;20237;-67
2023/01/26 00:11:49;;;;;;;20.50;13.57;;;;;;;1.15;nan;102410.41;6202198;28;20241;-68
2023/01/26 00:15:10;;;;;;;32.83;19.37;;;;;;;0.68;nan;102415.06;6199461;28;20724;-67
2023/01/26 00:18:32;;;;;;;28.53;16.40;;;;;;;0.87;nan;102406.66;6209001;28;20248;-67
2023/01/26 00:21:53;;;;;;;22.23;13.40;;;;;;;1.02;nan;102398.31;6209001;28;20530;-67
2023/01/26 00:25:14;;;;;;;26.87;14.93;;;;;;;0.83;nan;102401.41;6203716;28;20232;-68
2023/01/26 00:28:35;;;;;;;27.07;16.43;;;;;;;0.61;nan;102399.31;6216154;28;20256;-66
2023/01/26 00:31:56;;;;;;;25.20;16.00;;;;;;;0.93;nan;102396.78;6213119;28;20240;-66
2023/01/26 00:35:18;;;;;;;29.27;14.70;;;;;;;1.15;nan;102381.19;6220889;28;20233;-68
2023/01/26 00:38:39;;;;;;;25.93;14.77;;;;;;;0.65;nan;102385.94;6219976;28;20233;-67
2023/01/26 00:42:09;;;;;;;26.77;14.63;;;;;;;0.53;nan;102380.06;6199360;28;20607;-67
2023/01/26 00:45:30;;;;;;;28.77;15.53;;;;;;;0.52;nan;102387.13;6218695;28;20271;-66
2023/01/26 00:48:51;;;;;;;22.37;13.23;;;;;;;0.87;nan;102381.00;6213149;28;20229;-67
2023/01/26 00:52:13;;;;;;;25.60;14.53;;;;;;;0.95;nan;102372.84;6210369;28;20320;-68
2023/01/26 00:55:34;;;;;;;18.70;11.37;;;;;;;0.61;nan;102380.75;6201406;28;20331;-66
2023/01/26 00:58:55;;;;;;;20.83;13.07;;;;;;;0.54;nan;102376.50;6209274;28;20230;-67
2023/01/26 01:02:16;;;;;;;20.10;11.47;;;;;;;0.83;nan;102366.91;6188819;28;20857;-66
2023/01/26 01:05:37;;;;;;;24.00;13.43;;;;;;;1.13;nan;102356.44;6206182;28;20259;-67
2023/01/26 01:08:59;;;;;;;23.73;14.40;;;;;;;0.92;nan;102355.19;6209316;28;21250;-67
2023/01/26 01:12:20;;;;;;;16.10;11.03;;;;;;;1.37;nan;102355.78;6199108;28;20972;-66
2023/01/26 01:15:41;;;;;;;22.03;12.73;;;;;;;1.09;nan;102357.41;6212552;28;20251;-67
2023/01/26 01:19:02;;;;;;;18.63;12.17;;;;;;;0.99;nan;102351.47;6211017;28;20236;-67
2023/01/26 01:22:23;;;;;;;24.03;13.40;;;;;;;1.02;nan;102348.78;6203284;28;20444;-66
2023/01/26 01:25:45;;;;;;;25.53;13.93;;;;;;;1.11;nan;102344.97;6215757;28;20236;-67
2023/01/26 01:29:07;;;;;;;21.70;12.80;;;;;;;1.08;nan;102342.41;6208409;28;20260;-67
2023/01/26 01:32:28;;;;;;;29.27;15.07;;;;;;;0.81;nan;102339.53;6207323;28;20232;-66
2023/01/26 01:35:59;;;;;;;17.30;10.67;;;;;;;0.90;nan;102334.94;6207352;28;20311;-67
2023/01/26 01:39:20;;;;;;;22.30;13.43;;;;;;;1.33;nan;102341.72;6199643;28;20240;-66
2023/01/26 01:42:48;;;;;;;21.27;12.43;;;;;;;1.45;nan;102340.50;6203977;28;20232;-66
2023/01/26 01:46:18;;;;;;;25.93;13.20;;;;;;;1.49;nan;102337.72;6203457;28;20516;-67
2023/01/26 01:49:46;;;;;;;25.63;12.73;;;;;;;1.50;nan;102333.28;6201247;28;20256;-66
2023/01/26 01:53:11;;;;;;;18.70;9.63;;;;;;;1.13;nan;102343.16;6217320;28;20229;-67
2023/01/26 01:56:37;;;;;;;21.30;10.63;;;;;;;1.18;nan;102335.94;6203945;28;20224;-67
2023/01/26 02:00:03;;;;;;;16.40;11.97;;;;;;;0.83;nan;102342.19;6194290;28;20229;-67
2023/01/26 02:03:34;;;;;;;21.47;12.47;;;;;;;0.90;nan;102341.09;6209135;28;20244;-67
2023/01/26 02:06:58;;;;;;;18.23;11.00;;;;;;;1.27;nan;102333.91;6216712;28;20257;-67
2023/01/26 02:10:20;;;;;;;16.87;11.47;;;;;;;1.12;nan;102336.09;6193278;28;20408;-67
2023/01/26 02:13:43;;;;;;;21.17;12.77;;;;;;;1.12;nan;102334.34;6197176;28;20233;-67
2023/01/26 02:17:05;;;;;;;20.50;12.83;;;;;;;1.07;nan;102330.03;6206687;28;20254;-66
2023/01/26 02:20:33;;;;;;;18.70;12.47;;;;;;;1.11;nan;102324.59;6205760;28;20224;-66
2023/01/26 02:24:07;;;;;;;17.90;12.37;;;;;;;1.01;nan;102328.44;6215554;28;20225;-67
2023/01/26 02:27:30;;;;;;;22.00;11.13;;;;;;;0.87;nan;102324.38;6219843;28;20613;-66
2023/01/26 02:30:52;;;;;;;24.33;14.40;;;;;;;1.21;nan;102325.25;6201930;28;20237;-65
2023/01/26 02:34:14;;;;;;;22.10;16.00;;;;;;;1.19;nan;102325.28;6206083;28;20221;-66
2023/01/26 02:37:34;;;;;;;22.73;13.47;;;;;;;0.86;nan;102320.84;6207797;28;20238;-67
2023/01/26 02:40:59;;;;;;;19.67;12.27;;;;;;;1.10;nan;102317.56;6201597;28;20603;-66
2023/01/26 02:44:22;;;;;;;24.27;12.10;;;;;;;0.92;nan;102306.56;6211120;28;20226;-67
2023/01/26 02:47:43;;;;;;;18.90;12.33;;;;;;;0.93;nan;102306.53;6214481;28;21037;-67
2023/01/26 02:51:04;;;;;;;17.20;9.83;;;;;;;0.70;nan;102306.25;6203780;28;20240;-67
2023/01/26 02:58:05;;;;;;;14.27;10.07;;;;;;;1.10;nan;102299.00;6216744;28;20260;-67
2023/01/26 03:01:29;;;;;;;17.93;10.60;;;;;;;1.03;nan;102296.53;6209699;28;20247;-67
2023/01/26 03:04:49;;;;;;;19.07;9.80;;;;;;;1.01;nan;102295.69;6199625;28;20498;-66
2023/01/26 03:08:10;;;;;;;19.77;11.83;;;;;;;0.85;nan;102291.72;6218289;28;20618;-67
2023/01/26 03:11:40;;;;;;;19.47;9.97;;;;;;;0.82;nan;102287.34;6199238;28;20239;-66
2023/01/26 03:29:37;;;;;;;17.23;11.33;;;;;;;1.30;nan;102275.41;6193091;28;20315;-66
2023/01/26 03:32:59;;;;;;;18.47;10.33;;;;;;;0.99;nan;102282.47;6214478;28;20503;-67
2023/01/26 03:36:22;;;;;;;17.33;10.13;;;;;;;1.31;nan;102274.50;6202998;28;20610;-67
2023/01/26 03:57:58;;;;;;;15.10;8.53;;;;;;;1.51;nan;102257.97;6219358;28;20580;-65
2023/01/26 04:01:20;;;;;;;18.20;11.27;;;;;;;2.19;nan;102261.19;6199804;28;20220;-66
2023/01/26 04:08:23;;;;;;;18.07;11.37;;;;;;;1.59;nan;102253.28;6214525;28;20584;-66
2023/01/26 04:11:51;;;;;;;17.07;9.80;;;;;;;1.36;nan;102264.59;6209755;28;20241;-66
2023/01/26 04:22:30;;;;;;;16.77;12.20;;;;;;;1.51;nan;102260.63;6198466;28;20240;-66
2023/01/26 04:25:51;;;;;;;17.00;9.93;;;;;;;1.81;nan;102258.84;6205910;28;20225;-67
2023/01/26 04:29:16;;;;;;;17.40;9.80;;;;;;;1.68;nan;102254.81;6204940;28;20236;-66
2023/01/26 04:32:38;;;;;;;20.03;10.50;;;;;;;1.98;nan;102265.38;6215986;28;20516;-66
2023/01/26 04:36:03;;;;;;;17.77;10.10;;;;;;;1.46;nan;102262.56;6208700;28;20313;-66
2023/01/26 04:39:24;;;;;;;12.87;11.23;;;;;;;1.66;nan;102267.28;6201328;28;20245;-66
2023/01/26 04:42:48;;;;;;;16.10;10.57;;;;;;;1.43;nan;102259.97;6206766;28;20233;-66
2023/01/26 04:46:11;;;;;;;14.63;9.70;;;;;;;1.20;nan;102257.09;6209326;28;20260;-65
2023/01/26 04:49:34;;;;;;;10.40;7.60;;;;;;;1.29;nan;102252.44;6210533;28;20229;-66
2023/01/26 04:52:54;;;;;;;19.13;11.03;;;;;;;1.39;nan;102256.56;6202941;28;20256;-67
2023/01/26 04:56:21;;;;;;;20.53;10.57;;;;;;;1.47;nan;102243.91;6216403;28;20618;-67
2023/01/26 04:59:42;;;;;;;13.53;7.47;;;;;;;1.46;nan;102247.47;6213638;28;20350;-67
2023/01/26 05:03:05;;;;;;;15.87;8.40;;;;;;;1.45;nan;102243.09;6207137;28;20294;-67
2023/01/26 05:06:26;;;;;;;17.83;8.60;;;;;;;1.67;nan;102253.09;6201205;28;20629;-67
2023/01/26 05:09:47;;;;;;;14.83;10.73;;;;;;;1.80;nan;102244.69;6204172;28;20228;-66
2023/01/26 05:13:46;;;;;;;14.97;9.23;;;;;;;1.30;nan;102242.66;6208495;28;20559;-66
2023/01/26 05:17:16;;;;;;;14.73;10.07;;;;;;;1.48;nan;102236.81;6213698;28;20310;-66
2023/01/26 05:21:10;;;;;;;12.73;8.60;;;;;;;1.42;nan;102240.50;6208089;28;20236;-66
2023/01/26 05:24:39;;;;;;;13.93;8.63;;;;;;;1.36;nan;102235.38;6201106;28;20232;-65
2023/01/26 05:28:13;;;;;;;13.60;9.20;;;;;;;1.83;nan;102233.97;6206785;28;20252;-66
2023/01/26 05:31:35;;;;;;;15.30;8.77;;;;;;;2.12;nan;102233.03;6199012;28;20240;-66
2023/01/26 05:34:58;;;;;;;12.43;6.83;;;;;;;1.66;nan;102232.72;6213309;28;20700;-65
2023/01/26 05:38:21;;;;;;;12.27;7.20;;;;;;;1.28;nan;102223.22;6224873;28;20269;-67
2023/01/26 05:41:42;;;;;;;10.80;7.47;;;;;;;1.40;nan;102226.41;6213446;28;20298;-67
2023/01/26 05:45:12;;;;;;;13.87;8.10;;;;;;;1.59;nan;102243.53;6198518;28;20228;-66
2023/01/26 05:48:33;;;;;;;12.30;8.80;;;;;;;1.54;nan;102233.97;6202189;28;20238;-67
2023/01/26 05:51:55;;;;;;;11.83;8.50;;;;;;;1.61;nan;102239.06;6201309;28;20221;-66
2023/01/26 05:55:18;;;;;;;12.90;7.77;;;;;;;1.56;nan;102238.31;6217802;28;21207;-67
2023/01/26 05:58:39;;;;;;;12.87;8.53;;;;;;;1.93;nan;102234.53;6205920;28;20233;-67
2023/01/26 06:02:01;;;;;;;14.67;9.13;;;;;;;1.89;nan;102248.84;6185969;28;20236;-67
2023/01/26 06:05:22;;;;;;;13.03;8.00;;;;;;;1.51;nan;102240.25;6206614;28;20224;-67
2023/01/26 06:08:44;;;;;;;11.00;6.53;;;;;;;1.70;nan;102248.53;6197981;28;20328;-67
2023/01/26 06:12:27;;;;;;;12.37;8.57;;;;;;;2.08;nan;102245.56;6191713;28;20729;-67
2023/01/26 06:15:50;;;;;;;13.33;8.10;;;;;;;1.93;nan;102239.84;6196643;28;20248;-67
2023/01/26 06:19:14;;;;;;;9.13;7.00;;;;;;;1.68;nan;102244.19;6193066;28;20225;-67
2023/01/26 06:22:38;;;;;;;11.13;7.13;;;;;;;1.73;nan;102253.78;6216089;28;20414;-67
2023/01/26 06:25:59;;;;;;;11.80;7.70;;;;;;;1.97;nan;102250.34;6193244;28;20229;-66
2023/01/26 06:29:22;;;;;;;13.77;8.23;;;;;;;1.97;nan;102241.50;6201454;28;20236;-66
2023/01/26 06:32:43;;;;;;;16.57;9.00;;;;;;;1.71;nan;102246.75;6195007;28;20229;-67
2023/01/26 06:36:05;;;;;;;10.03;7.47;;;;;;;2.02;nan;102243.09;6199009;28;20231;-67
2023/01/26 06:39:26;;;;;;;12.30;8.23;;;;;;;2.27;nan;102248.50;6202484;28;20225;-67
2023/01/26 06:42:48;;;;;;;11.73;7.50;;;;;;;2.48;nan;102246.94;6195906;28;20665;-67
2023/01/26 06:46:12;;;;;;;9.57;6.03;;;;;;;2.79;nan;102250.28;6210030;28;20236;-68
2023/01/26 06:49:33;;;;;;;9.33;7.30;;;;;;;2.69;nan;102252.38;6186259;28;20648;-67
2023/01/26 06:52:56;;;;;;;7.93;6.47;;;;;;;2.19;nan;102250.56;6190324;28;20229;-67
2023/01/26 06:56:43;;;;;;;10.23;6.90;;;;;;;2.64;nan;102257.00;6192502;28;20229;-68
2023/01/26 07:00:23;;;;;;;10.43;5.63;;;;;;;2.34;nan;102256.22;6180423;28;20258;-68
2023/01/26 07:03:51;;;;;;;10.97;5.80;;;;;;;2.21;nan;102254.03;6202150;28;20662;-69
2023/01/26 07:07:12;;;;;;;9.40;6.37;;;;;;;1.85;nan;102257.84;6199344;28;20237;-67
2023/01/26 07:10:33;;;;;;;10.83;5.80;;;;;;;2.26;nan;102254.72;6191591;28;20237;-69
2023/01/26 07:13:54;;;;;;;8.00;6.67;;;;;;;2.40;nan;102255.13;6190334;28;20237;-68
2023/01/26 07:17:15;;;;;;;11.10;5.43;;;;;;;2.25;nan;102255.66;6206661;28;20237;-68
2023/01/26 07:20:38;;;;;;;10.53;6.33;;;;;;;2.76;nan;102256.56;6207048;28;20601;-68
2023/01/26 07:23:58;;;;;;;8.33;6.00;;;;;;;2.62;nan;102271.28;6213451;28;20232;-69
2023/01/26 07:27:19;;;;;;;8.90;5.97;;;;;;;2.78;nan;102270.69;6198329;28;20245;-68
2023/01/26 07:30:40;;;;;;;8.03;5.80;;;;;;;2.58;nan;102264.31;6191106;28;20622;-68
2023/01/26 07:34:01;;;;;;;14.10;7.30;;;;;;;2.72;nan;102262.94;6210109;28;20634;-70
2023/01/26 07:37:27;;;;;;;8.37;6.37;;;;;;;3.01;nan;102270.78;6208914;28;20229;-70
2023/01/26 07:40:48;;;;;;;12.47;7.17;;;;;;;3.31;nan;102267.94;6203024;28;20228;-70
2023/01/26 07:44:10;;;;;;;10.60;5.90;;;;;;;2.82;nan;102267.00;6203710;28;20255;-69
2023/01/26 07:47:31;;;;;;;9.47;6.60;;;;;;;2.71;nan;102266.50;6191060;28;20229;-68
2023/01/26 07:50:51;;;;;;;10.20;7.10;;;;;;;3.21;nan;102270.91;6197924;28;20319;-68
2023/01/26 07:54:13;;;;;;;11.47;7.03;;;;;;;3.30;nan;102277.72;6208890;28;20229;-68
2023/01/26 07:57:35;;;;;;;10.50;5.30;;;;;;;3.00;nan;102278.81;6203834;28;20344;-69
2023/01/26 08:00:56;;;;;;;6.33;5.43;;;;;;;2.70;nan;102263.91;6205980;28;20258;-67
2023/01/26 08:04:17;;;;;;;8.37;5.13;;;;;;;2.62;nan;102265.94;6208222;28;20929;-68
2023/01/26 08:07:38;;;;;;;5.33;4.60;;;;;;;2.92;nan;102265.75;6206219;28;20237;-68
2023/01/26 08:11:01;;;;;;;7.70;4.93;;;;;;;3.19;nan;102272.78;6207363;28;20241;-69
2023/01/26 08:14:22;;;;;;;7.20;5.87;;;;;;;3.26;nan;102284.09;6197966;28;20253;-67
2023/01/26 08:17:43;;;;;;;8.97;6.87;;;;;;;2.53;nan;102282.22;6213645;28;20226;-70
2023/01/26 08:21:04;;;;;;;8.23;5.17;;;;;;;2.75;nan;102288.59;6203025;28;20233;-69
2023/01/26 08:24:26;;;;;;;8.70;5.77;;;;;;;2.98;nan;102286.00;6199496;28;20241;-67
2023/01/26 08:27:48;;;;;;;7.73;5.97;;;;;;;2.06;nan;102291.75;6213324;28;20233;-68
2023/01/26 08:31:11;;;;;;;9.23;5.37;;;;;;;2.34;nan;102297.91;6206105;28;20236;-69
2023/01/26 08:34:32;;;;;;;15.47;7.77;;;;;;;2.44;nan;102294.06;6198116;28;20230;-69
2023/01/26 08:37:53;;;;;;;6.93;5.83;;;;;;;2.38;nan;102288.91;6217316;28;20233;-69
2023/01/26 08:41:14;;;;;;;10.30;5.93;;;;;;;2.18;nan;102294.88;6210390;28;20304;-69
2023/01/26 08:44:36;;;;;;;7.23;4.90;;;;;;;2.54;nan;102297.28;6200211;28;20226;-68
2023/01/26 08:47:57;;;;;;;7.87;5.93;;;;;;;3.00;nan;102302.78;6216462;28;20229;-68
2023/01/26 08:51:18;;;;;;;13.67;8.03;;;;;;;3.32;nan;102289.19;6223201;28;20240;-69
2023/01/26 08:54:39;;;;;;;9.43;6.03;;;;;;;3.13;nan;102290.75;6196933;28;20231;-67
2023/01/26 08:58:00;;;;;;;9.70;7.00;;;;;;;3.25;nan;102285.88;6217392;28;20513;-66
2023/01/26 09:01:23;;;;;;;11.93;6.37;;;;;;;3.27;nan;102288.50;6197998;28;20236;-67
2023/01/26 09:04:44;;;;;;;8.50;5.53;;;;;;;3.43;nan;102286.13;6200072;28;20606;-69
2023/01/26 09:08:08;;;;;;;6.83;5.23;;;;;;;2.94;nan;102293.22;6208600;28;21861;-69
2023/01/26 09:11:28;;;;;;;8.47;7.07;;;;;;;3.48;nan;102286.84;6210021;28;20615;-69
2023/01/26 09:14:49;;;;;;;6.93;5.50;;;;;;;3.91;nan;102281.63;6198960;28;20248;-70
2023/01/26 09:18:12;;;;;;;7.17;5.60;;;;;;;3.86;nan;102286.25;6210976;28;20230;-69
2023/01/26 09:21:32;;;;;;;11.20;7.00;;;;;;;3.49;nan;102276.13;6205934;28;20316;-68
2023/01/26 09:24:53;;;;;;;6.43;5.30;;;;;;;3.72;nan;102277.91;6207099;28;20236;-70
2023/01/26 09:28:14;;;;;;;9.30;5.37;;;;;;;3.79;nan;102276.78;6215371;28;20268;-65
2023/01/26 09:31:35;;;;;;;5.27;3.90;;;;;;;3.57;nan;102278.50;6212659;28;20240;-69
2023/01/26 09:34:57;;;;;;;8.97;5.93;;;;;;;3.76;nan;102274.22;6196136;28;20228;-68
2023/01/26 09:38:18;;;;;;;7.60;5.53;;;;;;;4.09;nan;102274.72;6220318;28;20545;-68
2023/01/26 09:41:53;;;;;;;7.90;4.30;;;;;;;3.90;nan;102280.75;6212646;28;20845;-68
2023/01/26 09:45:26;;;;;;;6.93;3.97;;;;;;;3.99;nan;102271.53;6200480;28;20236;-68
2023/01/26 09:48:57;;;;;;;6.97;4.13;;;;;;;3.34;nan;102268.69;6214382;28;20543;-70
2023/01/26 09:52:26;;;;;;;4.80;4.40;;;;;;;2.92;nan;102273.75;6196928;28;20237;-69
2023/01/26 09:55:48;;;;;;;6.53;4.83;;;;;;;2.92;nan;102268.41;6206728;28;20228;-70
2023/01/26 09:59:23;;;;;;;4.63;3.97;;;;;;;3.09;nan;102267.81;6202951;28;20228;-71
2023/01/26 10:02:55;;;;;;;8.57;4.90;;;;;;;2.69;nan;102268.34;6199865;28;20229;-69
2023/01/26 10:06:24;;;;;;;7.53;5.57;;;;;;;3.19;nan;102269.25;6181723;28;20241;-69
2023/01/26 10:10:02;;;;;;;5.43;4.77;;;;;;;3.70;nan;102261.09;6202031;28;20229;-71
2023/01/26 10:13:23;;;;;;;9.57;3.57;;;;;;;4.03;nan;102271.34;6215312;28;20233;-70
2023/01/26 10:16:48;;;;;;;6.33;4.20;;;;;;;4.07;nan;102269.41;6203599;28;20233;-70
2023/01/26 10:20:24;;;;;;;4.43;3.43;;;;;;;4.22;nan;102268.81;6200117;28;20232;-70
2023/01/26 10:23:48;;;;;;;19.27;4.53;;;;;;;4.34;nan;102259.47;6212739;28;20607;-71
2023/01/26 10:27:13;;;;;;;7.77;4.50;;;;;;;4.40;nan;102254.72;6218785;28;20240;-71
2023/01/26 10:30:34;;;;;;;7.40;4.20;;;;;;;4.49;nan;102256.13;6202721;28;20232;-70
2023/01/26 10:33:57;;;;;;;7.80;4.13;;;;;;;4.55;nan;102258.53;6214689;28;20598;-71
2023/01/26 10:37:23;;;;;;;9.07;5.33;;;;;;;4.60;nan;102248.56;6190490;28;20263;-69
2023/01/26 10:40:44;;;;;;;9.27;6.50;;;;;;;4.01;nan;102243.84;6211240;28;20288;-72
2023/01/26 10:44:24;;;;;;;9.90;5.20;;;;;;;3.89;nan;102248.81;6214567;28;20228;-71
2023/01/26 10:48:03;;;;;;;9.97;5.53;;;;;;;4.12;nan;102231.88;6204909;28;20233;-71
2023/01/26 10:51:26;;;;;;;12.57;6.50;;;;;;;4.05;nan;102226.78;6209930;28;20224;-71
2023/01/26 10:54:47;;;;;;;7.30;6.20;;;;;;;4.18;nan;102237.84;6201098;28;20324;-70
2023/01/26 10:58:45;;;;;;;7.57;4.30;;;;;;;4.31;nan;102238.22;6213926;28;20220;-69
2023/01/26 11:02:21;;;;;;;6.07;5.20;;;;;;;4.67;nan;102245.53;6198855;28;20320;-68
2023/01/26 11:05:43;;;;;;;7.73;6.03;;;;;;;4.68;nan;102247.28;6207745;28;20221;-69
2023/01/26 11:09:18;;;;;;;7.03;5.07;;;;;;;4.63;nan;102248.44;6204061;28;20222;-69
2023/01/26 11:12:38;;;;;;;7.57;4.47;;;;;;;4.73;nan;102255.13;6198705;28;20315;-68
2023/01/26 11:16:09;;;;;;;9.83;4.60;;;;;;;4.80;nan;102253.91;6203576;28;20260;-68
2023/01/26 11:19:56;;;;;;;9.53;6.20;;;;;;;5.10;nan;102241.03;6189176;28;20256;-68
2023/01/26 11:23:29;;;;;;;12.30;8.03;;;;;;;4.88;nan;102230.44;6218096;28;20694;-69
2023/01/26 11:27:19;;;;;;;7.73;5.30;;;;;;;4.94;nan;102238.16;6194140;28;20569;-69
2023/01/26 11:30:57;;;;;;;12.83;5.83;;;;;;;4.89;nan;102234.81;6197448;28;20228;-68
2023/01/26 11:34:28;;;;;;;12.93;7.63;;;;;;;5.14;nan;102234.59;6201527;28;20232;-67
2023/01/26 11:38:01;;;;;;;10.63;5.90;;;;;;;5.35;nan;102226.50;6194523;28;20220;-67
2023/01/26 11:41:36;;;;;;;13.23;6.43;;;;;;;5.14;nan;102206.06;6207457;28;20314;-67
2023/01/26 11:45:17;;;;;;;12.17;6.30;;;;;;;5.09;nan;102217.91;6192538;28;20624;-70
2023/01/26 11:48:49;;;;;;;8.60;5.77;;;;;;;5.37;nan;102210.38;6217295;28;20236;-69
2023/01/26 11:52:17;;;;;;;9.47;6.67;;;;;;;5.66;nan;102209.88;6217779;28;20228;-68
2023/01/26 11:55:56;;;;;;;16.73;8.50;;;;;;;5.65;nan;102201.00;6201241;28;20326;-68
2023/01/26 11:59:21;;;;;;;15.27;5.40;;;;;;;5.67;nan;102201.78;6213231;28;20315;-69
2023/01/26 12:02:43;;;;;;;8.20;5.97;;;;;;;5.53;nan;102196.22;6209547;28;20232;-70
2023/01/26 12:06:13;;;;;;;10.93;5.27;;;;;;;5.79;nan;102191.44;6215125;28;20244;-70
2023/01/26 12:09:41;;;;;;;12.47;6.30;;;;;;;5.78;nan;102187.06;6202451;28;20233;-69
2023/01/26 12:13:11;;;;;;;13.73;8.47;;;;;;;5.84;nan;102182.28;6222582;28;20236;-70
2023/01/26 12:16:42;;;;;;;11.60;9.47;;;;;;;5.76;nan;102184.44;6212891;28;20224;-69
2023/01/26 12:20:19;;;;;;;15.93;10.70;;;;;;;5.77;nan;102180.81;6207542;28;20220;-69
2023/01/26 12:23:47;;;;;;;8.07;5.97;;;;;;;5.63;nan;102185.97;6220705;28;20240;-69
2023/01/26 12:27:18;;;;;;;9.73;5.87;;;;;;;5.68;nan;102175.91;6216708;28;20558;-69
2023/01/26 12:30:49;;;;;;;10.33;5.47;;;;;;;5.45;nan;102168.97;6206846;28;20233;-70
2023/01/26 12:34:13;;;;;;;13.77;8.00;;;;;;;5.55;nan;102169.41;6202078;28;20311;-68
2023/01/26 12:37:50;;;;;;;12.47;8.67;;;;;;;5.56;nan;102158.66;6199641;28;20241;-68
2023/01/26 12:41:15;;;;;;;10.13;6.80;;;;;;;5.59;nan;102158.47;6208643;28;20228;-68
2023/01/26 12:44:40;;;;;;;9.10;5.77;;;;;;;5.68;nan;102154.50;6193394;28;20259;-69
2023/01/26 12:48:10;;;;;;;5.70;4.33;;;;;;;5.71;nan;102150.81;6218430;28;20233;-70
2023/01/26 12:51:37;;;;;;;5.97;4.73;;;;;;;5.57;nan;102144.31;6202294;28;20228;-70
2023/01/26 12:55:03;;;;;;;6.77;4.57;;;;;;;5.62;nan;102146.78;6201402;28;20229;-69
2023/01/26 12:58:29;;;;;;;7.33;5.37;;;;;;;5.70;nan;102149.94;6205027;28;20516;-70
2023/01/26 13:01:50;;;;;;;9.30;5.17;;;;;;;5.60;nan;102164.72;6211121;28;20743;-71
2023/01/26 13:05:24;;;;;;;9.03;7.97;;;;;;;5.48;nan;102160.81;6188398;28;20252;-69
2023/01/26 13:08:52;;;;;;;9.93;8.73;;;;;;;5.52;nan;102157.06;6201369;28;20373;-69
2023/01/26 13:12:44;;;;;;;9.20;7.70;;;;;;;5.67;nan;102158.97;6194129;28;20350;-70
2023/01/26 13:16:33;;;;;;;13.40;8.77;;;;;;;5.66;nan;102159.06;6205051;28;20522;-70
2023/01/26 13:19:58;;;;;;;8.40;5.00;;;;;;;5.18;nan;102156.00;6196299;28;20233;-73
2023/01/26 13:23:40;;;;;;;10.77;9.27;;;;;;;5.45;nan;102150.25;6210114;28;20240;-71
2023/01/26 13:27:01;;;;;;;12.80;8.00;;;;;;;5.41;nan;102143.31;6208992;28;20226;-71
2023/01/26 13:30:34;;;;;;;11.33;7.47;;;;;;;5.46;nan;102141.31;6205901;28;20245;-70
2023/01/26 13:33:58;;;;;;;4.67;4.27;;;;;;;5.19;nan;102152.41;6210746;28;20797;-70
2023/01/26 13:37:26;;;;;;;4.27;3.20;;;;;;;5.12;nan;102159.84;6218233;28;20225;-70
2023/01/26 13:40:49;;;;;;;7.47;6.77;;;;;;;5.16;nan;102144.53;6214905;28;20656;-70
2023/01/26 13:44:17;;;;;;;7.40;5.90;;;;;;;5.11;nan;102152.75;6209449;28;20233;-69
2023/01/26 13:47:41;;;;;;;9.33;5.50;;;;;;;5.05;nan;102155.69;6215616;28;20611;-69
2023/01/26 13:51:03;;;;;;;4.03;3.50;;;;;;;5.21;nan;102153.22;6208821;28;20221;-70
2023/01/26 13:54:26;;;;;;;4.03;3.20;;;;;;;5.30;nan;102156.31;6206556;28;20228;-69
2023/01/26 13:57:49;;;;;;;3.27;2.90;;;;;;;5.50;nan;102156.28;6221221;28;20225;-70
2023/01/26 14:01:13;;;;;;;5.03;2.80;;;;;;;5.31;nan;102170.56;6210620;28;20240;-70
2023/01/26 14:04:36;;;;;;;11.03;4.57;;;;;;;5.21;nan;102163.91;6204656;28;20249;-71
2023/01/26 14:07:58;;;;;;;4.50;3.10;;;;;;;5.27;nan;102161.81;6214434;28;20234;-68
2023/01/26 14:11:20;;;;;;;4.03;3.17;;;;;;;5.50;nan;102169.63;6204127;28;20259;-68
2023/01/26 14:14:47;;;;;;;4.10;3.30;;;;;;;5.29;nan;102181.31;6196423;28;20241;-70
2023/01/26 14:18:20;;;;;;;7.83;3.77;;;;;;;5.41;nan;102174.53;6208425;28;20248;-69
2023/01/26 14:21:50;;;;;;;5.37;2.90;;;;;;;5.65;nan;102168.88;6209332;28;21213;-70
2023/01/26 14:25:10;;;;;;;4.30;3.50;;;;;;;5.48;nan;102167.97;6207567;28;20232;-69
2023/01/26 14:28:34;;;;;;;5.13;3.53;;;;;;;5.38;nan;102172.88;6214923;28;20252;-70
2023/01/26 14:31:59;;;;;;;4.03;3.23;;;;;;;5.30;nan;102172.34;6215164;28;20245;-70
2023/01/26 14:35:22;;;;;;;6.77;3.80;;;;;;;5.50;nan;102179.47;6211081;28;20615;-70
2023/01/26 14:38:45;;;;;;;2.83;2.57;;;;;;;5.54;nan;102186.41;6218193;28;20229;-68
2023/01/26 14:42:06;;;;;;;6.87;2.70;;;;;;;5.50;nan;102192.84;6216338;28;20241;-70
2023/01/26 14:45:30;;;;;;;6.40;4.00;;;;;;;5.53;nan;102193.53;6206971;28;20225;-70
2023/01/26 14:48:58;;;;;;;9.23;3.87;;;;;;;5.58;nan;102196.00;6218289;28;20221;-70
2023/01/26 14:52:24;;;;;;;8.83;2.83;;;;;;;5.38;nan;102198.75;6198490;28;20233;-69
2023/01/26 14:55:44;;;;;;;2.73;2.33;;;;;;;5.35;nan;102201.56;6211823;28;20497;-70
2023/01/26 14:59:07;;;;;;;4.10;2.93;;;;;;;5.43;nan;102199.38;6208474;28;20233;-71
2023/01/26 15:02:36;;;;;;;4.37;3.97;;;;;;;5.52;nan;102194.50;6201493;28;20241;-70
2023/01/26 15:06:07;;;;;;;2.63;2.20;;;;;;;5.32;nan;102199.03;6209491;28;20602;-69
2023/01/26 15:09:28;;;;;;;5.63;3.53;;;;;;;5.34;nan;102207.84;6199099;28;20221;-69
2023/01/26 15:12:57;;;;;;;5.23;3.73;;;;;;;5.04;nan;102217.25;6205803;28;20614;-70
2023/01/26 15:16:20;;;;;;;4.73;2.47;;;;;;;5.03;nan;102212.84;6211311;28;20497;-70
2023/01/26 15:19:42;;;;;;;2.43;2.23;;;;;;;5.30;nan;102209.78;6199206;28;20228;-69
2023/01/26 15:23:24;;;;;;;3.93;3.03;;;;;;;5.48;nan;102206.28;6218527;28;20240;-70
2023/01/26 15:26:45;;;;;;;5.33;3.47;;;;;;;5.32;nan;102210.56;6212248;28;20803;-69
2023/01/26 15:30:15;;;;;;;2.70;2.50;;;;;;;5.29;nan;102210.72;6201577;28;20306;-70
2023/01/26 15:33:44;;;;;;;4.23;3.50;;;;;;;5.07;nan;102203.75;6202031;28;20228;-70
2023/01/26 15:37:27;;;;;;;4.40;2.27;;;;;;;5.00;nan;102207.63;6205816;28;20701;-70
2023/01/26 15:40:50;;;;;;;3.67;2.97;;;;;;;4.98;nan;102201.50;6193554;28;20255;-68
2023/01/26 15:44:15;;;;;;;4.30;2.57;;;;;;;5.02;nan;102203.09;6200125;28;20910;-70
2023/01/26 15:47:36;;;;;;;4.27;2.77;;;;;;;5.29;nan;102200.03;6209878;28;20232;-70
2023/01/26 15:50:57;;;;;;;2.97;2.67;;;;;;;5.78;nan;102205.78;6207066;28;20590;-70
2023/01/26 15:54:18;;;;;;;2.40;2.20;;;;;;;5.74;nan;102196.16;6198575;28;20315;-71
2023/01/26 15:57:40;;;;;;;5.67;3.03;;;;;;;5.40;nan;102212.91;6203705;28;20233;-70
2023/01/26 16:01:01;;;;;;;4.33;3.57;;;;;;;5.33;nan;102212.34;6193441;28;20365;-70
2023/01/26 16:04:24;;;;;;;4.50;3.60;;;;;;;5.47;nan;102200.97;6191283;28;20315;-69
2023/01/26 16:07:45;;;;;;;4.53;3.53;;;;;;;5.54;nan;102205.13;6206400;28;20237;-72
2023/01/26 16:11:11;;;;;;;6.27;4.20;;;;;;;5.55;nan;102206.84;6203115;28;20548;-73
2023/01/26 16:14:33;;;;;;;4.90;3.53;;;;;;;5.63;nan;102210.88;6191277;28;20264;-69
2023/01/26 16:17:54;;;;;;;10.00;4.30;;;;;;;5.77;nan;102215.59;6219957;28;20233;-69
2023/01/26 16:21:20;;;;;;;5.90;4.10;;;;;;;5.62;nan;102208.31;6210223;28;20234;-69
2023/01/26 16:24:41;;;;;;;4.93;4.30;;;;;;;5.77;nan;102215.59;6201527;28;20736;-71
2023/01/26 16:28:01;;;;;;;9.67;4.90;;;;;;;5.81;nan;102224.34;6213025;28;20254;-70
2023/01/26 16:31:26;;;;;;;6.50;3.53;;;;;;;5.92;nan;102227.41;6212818;28;20332;-71
2023/01/26 16:34:47;;;;;;;8.10;5.37;;;;;;;5.96;nan;102224.53;6206932;28;20265;-73
2023/01/26 16:38:11;;;;;;;8.37;6.23;;;;;;;5.96;nan;102227.22;6225642;28;20634;-70
2023/01/26 16:41:33;;;;;;;8.00;6.03;;;;;;;6.03;nan;102231.31;6211698;28;20237;-71
2023/01/26 16:44:54;;;;;;;8.77;4.70;;;;;;;6.02;nan;102234.94;6202464;28;20237;-70
2023/01/26 16:48:16;;;;;;;7.57;4.63;;;;;;;5.95;nan;102241.50;6213457;28;20241;-72
2023/01/26 16:51:39;;;;;;;5.00;4.50;;;;;;;6.09;nan;102247.06;6215167;28;20243;-71
2023/01/26 16:54:59;;;;;;;8.13;5.83;;;;;;;5.98;nan;102249.41;6207831;28;20221;-71
2023/01/26 16:58:21;;;;;;;7.47;5.17;;;;;;;6.12;nan;102240.69;6210977;28;20601;-71
2023/01/26 17:01:42;;;;;;;9.47;5.53;;;;;;;6.04;nan;102258.94;6198837;28;20642;-73
2023/01/26 17:05:05;;;;;;;7.53;4.73;;;;;;;5.94;nan;102249.63;6205481;28;20236;-71
2023/01/26 17:08:25;;;;;;;7.20;5.27;;;;;;;5.94;nan;102252.31;6203652;28;20250;-72